createdAt,value
2018-07-27T00:01:05.614Z,3.93
2018-07-27T00:03:40.370Z,5.03
2018-07-27T00:06:14.265Z,3.30
2018-07-27T00:08:47.035Z,3.40
2018-07-27T00:11:21.206Z,3.53
2018-07-27T00:13:54.966Z,6.57
2018-07-27T00:16:29.391Z,3.57
2018-07-27T00:19:02.404Z,5.63
2018-07-27T00:21:37.692Z,3.27
2018-07-27T00:24:11.451Z,3.75
2018-07-27T00:26:44.796Z,3.53
2018-07-27T00:29:19.136Z,5.30
2018-07-27T00:31:51.988Z,3.80
2018-07-27T00:34:26.041Z,5.33
2018-07-27T00:36:59.913Z,4.57
2018-07-27T00:39:37.382Z,5.20
2018-07-27T00:42:10.192Z,4.50
2018-07-27T00:44:45.486Z,5.57
2018-07-27T00:47:20.183Z,3.90
2018-07-27T00:49:53.727Z,4.70
2018-07-27T00:52:28.046Z,6.53
2018-07-27T00:55:04.773Z,4.87
2018-07-27T00:57:40.780Z,4.93
2018-07-27T01:00:16.476Z,4.60
2018-07-27T01:02:49.781Z,4.70
2018-07-27T01:05:32.446Z,3.90
2018-07-27T01:08:05.972Z,6.27
2018-07-27T01:10:40.981Z,4.90
2018-07-27T01:13:16.936Z,4.80
2018-07-27T01:15:49.716Z,4.60
2018-07-27T01:18:23.960Z,6.50
2018-07-27T01:20:59.197Z,6.77
2018-07-27T01:23:33.370Z,5.43
2018-07-27T01:26:08.513Z,5.73
2018-07-27T01:28:42.300Z,4.53
2018-07-27T01:31:15.885Z,4.47
2018-07-27T01:33:51.666Z,6.07
2018-07-27T01:36:24.703Z,5.63
2018-07-27T01:38:59.056Z,4.67
2018-07-27T01:41:33.258Z,5.83
2018-07-27T01:44:06.737Z,4.30
2018-07-27T01:46:40.512Z,4.67
2018-07-27T01:49:13.623Z,3.73
2018-07-27T01:51:48.002Z,6.83
2018-07-27T01:54:21.513Z,4.60
2018-07-27T01:56:55.238Z,5.53
2018-07-27T01:59:36.990Z,6.37
2018-07-27T02:02:10.208Z,7.27
2018-07-27T02:04:43.510Z,6.00
2018-07-27T02:07:17.102Z,4.70
2018-07-27T02:09:51.866Z,4.30
2018-07-27T02:12:26.039Z,7.47
2018-07-27T02:15:00.740Z,5.73
2018-07-27T02:17:37.278Z,4.13
2018-07-27T02:20:10.403Z,4.73
2018-07-27T02:22:44.707Z,4.57
2018-07-27T02:25:18.299Z,5.70
2018-07-27T02:27:53.460Z,8.03
2018-07-27T02:30:26.839Z,7.40
2018-07-27T02:33:00.522Z,5.43
2018-07-27T02:35:34.729Z,5.15
2018-07-27T02:38:07.656Z,4.00
2018-07-27T02:40:42.344Z,4.80
2018-07-27T02:43:19.114Z,4.25
2018-07-27T02:45:51.923Z,4.43
2018-07-27T02:48:25.639Z,6.07
2018-07-27T02:51:00.713Z,3.77
2018-07-27T02:53:33.756Z,4.10
2018-07-27T02:56:07.619Z,4.30
2018-07-27T02:58:40.790Z,3.93
2018-07-27T03:01:13.792Z,8.03
2018-07-27T03:03:49.878Z,4.67
2018-07-27T03:06:23.559Z,5.23
2018-07-27T03:08:56.616Z,4.32
2018-07-27T03:11:29.316Z,6.03
2018-07-27T03:14:03.750Z,4.43
2018-07-27T03:16:36.520Z,7.90
2018-07-27T03:19:09.411Z,4.43
2018-07-27T03:21:42.622Z,8.03
2018-07-27T03:24:18.364Z,5.20
2018-07-27T03:26:52.928Z,3.93
2018-07-27T03:29:27.295Z,4.47
2018-07-27T03:32:00.637Z,4.70
2018-07-27T03:34:33.513Z,4.37
2018-07-27T03:37:07.326Z,5.33
2018-07-27T03:39:41.528Z,8.87
2018-07-27T03:42:14.329Z,6.37
2018-07-27T03:44:48.366Z,4.60
2018-07-27T03:47:21.602Z,6.23
2018-07-27T03:49:55.298Z,6.20
2018-07-27T03:52:29.796Z,6.43
2018-07-27T03:55:02.488Z,6.67
2018-07-27T03:57:35.297Z,4.20
2018-07-27T04:00:14.337Z,6.90
2018-07-27T04:02:46.992Z,4.43
2018-07-27T04:05:19.859Z,6.20
2018-07-27T04:07:53.851Z,6.57
2018-07-27T04:10:26.487Z,4.47
2018-07-27T04:13:01.041Z,5.73
2018-07-27T04:15:38.193Z,6.00
2018-07-27T04:18:18.805Z,5.43
2018-07-27T04:20:52.023Z,4.57
2018-07-27T04:23:26.231Z,6.60
2018-07-27T04:25:59.031Z,6.27
2018-07-27T04:28:31.907Z,5.20
2018-07-27T04:31:05.251Z,6.37
2018-07-27T04:33:37.878Z,4.47
2018-07-27T04:36:11.098Z,4.50
2018-07-27T04:38:45.097Z,7.20
2018-07-27T04:41:17.884Z,4.70
2018-07-27T04:43:50.603Z,5.77
2018-07-27T04:46:23.810Z,8.37
2018-07-27T04:48:57.098Z,6.80
2018-07-27T04:51:29.926Z,4.67
2018-07-27T04:54:03.569Z,6.10
2018-07-27T04:56:37.434Z,5.37
2018-07-27T04:59:10.254Z,6.60
2018-07-27T05:01:45.883Z,5.63
2018-07-27T05:04:18.612Z,5.07
2018-07-27T05:06:53.081Z,5.15
2018-07-27T05:09:30.247Z,7.60
2018-07-27T05:12:02.873Z,6.62
2018-07-27T05:14:35.765Z,7.37
2018-07-27T05:17:10.934Z,5.87
2018-07-27T05:19:43.726Z,4.90
2018-07-27T05:22:18.365Z,6.57
2018-07-27T05:24:52.130Z,7.23
2018-07-27T05:27:24.814Z,7.47
2018-07-27T05:29:59.744Z,6.70
2018-07-27T05:32:34.218Z,5.43
2018-07-27T05:35:07.514Z,7.37
2018-07-27T05:37:40.611Z,4.67
2018-07-27T05:40:13.918Z,5.83
2018-07-27T05:42:50.248Z,4.77
2018-07-27T05:45:23.147Z,5.23
2018-07-27T05:47:56.004Z,5.27
2018-07-27T05:50:29.239Z,6.07
2018-07-27T05:53:02.039Z,4.93
2018-07-27T05:55:34.901Z,9.60
2018-07-27T05:58:10.086Z,5.33
2018-07-27T06:00:43.677Z,5.53
2018-07-27T06:03:16.438Z,6.07
2018-07-27T06:05:50.282Z,4.47
2018-07-27T06:08:23.011Z,8.20
2018-07-27T06:10:56.551Z,6.97
2018-07-27T06:13:33.051Z,5.60
2018-07-27T06:16:07.516Z,5.65
2018-07-27T06:18:40.348Z,6.87
2018-07-27T06:21:14.650Z,7.07
2018-07-27T06:23:47.408Z,8.07
2018-07-27T06:26:22.629Z,10.07
2018-07-27T06:28:55.354Z,7.87
2018-07-27T06:31:28.090Z,5.83
2018-07-27T06:34:00.804Z,5.10
2018-07-27T06:36:34.650Z,5.40
2018-07-27T06:39:11.162Z,9.10
2018-07-27T06:41:46.040Z,5.20
2018-07-27T06:44:20.026Z,6.43
2018-07-27T06:46:52.862Z,6.35
2018-07-27T06:49:26.549Z,4.87
2018-07-27T06:52:02.609Z,8.93
2018-07-27T06:54:35.777Z,7.43
2018-07-27T06:57:09.593Z,7.97
2018-07-27T06:59:42.343Z,4.67
2018-07-27T07:02:15.300Z,5.47
2018-07-27T07:04:47.991Z,9.13
2018-07-27T07:07:20.718Z,8.07
2018-07-27T07:09:53.981Z,5.50
2018-07-27T07:12:26.611Z,8.63
2018-07-27T07:14:59.372Z,5.00
2018-07-27T07:17:32.447Z,6.60
2018-07-27T07:20:08.472Z,5.80
2018-07-27T07:22:41.842Z,5.80
2018-07-27T07:25:15.292Z,5.40
2018-07-27T07:27:51.312Z,6.57
2018-07-27T07:30:26.486Z,4.87
2018-07-27T07:33:01.181Z,5.20
2018-07-27T07:35:35.231Z,6.20
2018-07-27T07:38:09.706Z,6.60
2018-07-27T07:40:42.541Z,8.93
2018-07-27T07:43:17.403Z,9.50
2018-07-27T07:45:51.594Z,7.90
2018-07-27T07:48:26.163Z,5.63
2018-07-27T07:50:59.199Z,7.40
2018-07-27T07:53:32.767Z,7.47
2018-07-27T07:56:27.744Z,5.83
2018-07-27T07:59:08.356Z,6.50
2018-07-27T08:01:42.083Z,7.03
2018-07-27T08:04:16.680Z,6.67
2018-07-27T08:06:49.875Z,6.80
2018-07-27T08:09:24.368Z,6.37
2018-07-27T08:12:02.319Z,6.83
2018-07-27T08:14:38.462Z,5.53
2018-07-27T08:17:14.343Z,5.60
2018-07-27T08:19:50.103Z,6.67
2018-07-27T08:22:24.285Z,4.60
2018-07-27T08:24:57.062Z,4.90
2018-07-27T08:27:30.281Z,5.07
2018-07-27T08:30:13.191Z,6.87
2018-07-27T08:32:50.825Z,8.13
2018-07-27T08:35:24.691Z,7.33
2018-07-27T08:37:57.367Z,5.13
2018-07-27T08:40:31.792Z,5.10
2018-07-27T08:43:05.825Z,5.97
2018-07-27T08:45:40.734Z,5.10
2018-07-27T08:48:15.176Z,7.23
2018-07-27T08:50:48.735Z,5.97
2018-07-27T08:53:22.734Z,8.30
2018-07-27T08:55:56.696Z,6.65
2018-07-27T08:58:29.270Z,6.43
2018-07-27T09:01:02.371Z,5.23
2018-07-27T09:03:36.110Z,6.23
2018-07-27T09:06:09.073Z,5.87
2018-07-27T09:08:41.983Z,6.30
2018-07-27T09:11:15.353Z,6.13
2018-07-27T09:13:48.651Z,6.10
2018-07-27T09:16:21.798Z,7.20
2018-07-27T09:18:58.500Z,6.57
2018-07-27T09:21:31.416Z,5.50
2018-07-27T09:24:08.645Z,5.13
2018-07-27T09:26:41.855Z,5.87
2018-07-27T09:29:18.881Z,5.60
2018-07-27T09:32:21.138Z,5.53
2018-07-27T09:34:57.287Z,5.63
2018-07-27T09:37:31.027Z,5.65
2018-07-27T09:40:07.528Z,6.83
2018-07-27T09:42:41.167Z,6.63
2018-07-27T09:45:16.562Z,5.30
2018-07-27T09:47:49.718Z,5.03
2018-07-27T09:50:24.475Z,7.23
2018-07-27T09:53:02.455Z,5.63
2018-07-27T09:55:37.282Z,6.27
2018-07-27T09:58:11.529Z,4.70
2018-07-27T10:00:52.567Z,5.57
2018-07-27T10:03:26.065Z,4.50
2018-07-27T10:06:01.954Z,4.93
2018-07-27T10:08:36.900Z,5.20
2018-07-27T10:11:11.642Z,4.87
2018-07-27T10:13:48.975Z,5.07
2018-07-27T10:16:23.545Z,5.10
2018-07-27T10:18:56.257Z,7.43
2018-07-27T10:21:30.582Z,4.27
2018-07-27T10:24:03.371Z,4.70
2018-07-27T10:26:37.701Z,5.73
2018-07-27T10:29:13.339Z,4.37
2018-07-27T10:31:48.821Z,8.30
2018-07-27T10:34:27.485Z,5.62
2018-07-27T10:37:12.969Z,4.33
2018-07-27T10:39:45.852Z,4.57
2018-07-27T10:42:18.527Z,6.10
2018-07-27T10:44:54.697Z,4.83
2018-07-27T10:47:28.580Z,6.07
2018-07-27T10:50:03.454Z,4.67
2018-07-27T10:52:37.011Z,4.70
2018-07-27T10:55:12.636Z,5.10
2018-07-27T10:57:46.691Z,7.20
2018-07-27T11:00:21.803Z,7.00
2018-07-27T11:02:56.371Z,4.55
2018-07-27T11:05:33.527Z,6.27
2018-07-27T11:08:07.607Z,5.63
2018-07-27T11:10:43.480Z,4.77
2018-07-27T11:13:20.506Z,4.40
2018-07-27T11:15:54.689Z,6.20
2018-07-27T11:18:29.487Z,5.77
2018-07-27T11:21:04.297Z,4.55
2018-07-27T11:23:37.983Z,3.50
2018-07-27T11:26:11.902Z,5.27
2018-07-27T11:29:01.584Z,7.37
2018-07-27T11:31:37.188Z,7.63
2018-07-27T11:34:11.483Z,4.97
2018-07-27T11:36:44.443Z,3.60
2018-07-27T11:39:20.365Z,3.63
2018-07-27T11:41:55.917Z,3.55
2018-07-27T11:44:33.695Z,3.90
2018-07-27T11:47:08.519Z,4.90
2018-07-27T11:49:41.695Z,4.10
2018-07-27T11:52:18.238Z,5.20
2018-07-27T11:54:52.193Z,3.93
2018-07-27T11:57:24.921Z,3.63
2018-07-27T11:59:59.615Z,4.80
2018-07-27T12:02:33.218Z,4.50
2018-07-27T12:05:06.772Z,4.00
2018-07-27T12:07:41.848Z,3.70
2018-07-27T12:10:14.641Z,4.27
2018-07-27T12:12:48.672Z,4.17
2018-07-27T12:15:23.638Z,5.53
2018-07-27T12:17:56.633Z,3.30
2018-07-27T12:20:33.548Z,3.20
2018-07-27T12:23:06.479Z,7.00
2018-07-27T12:25:39.524Z,3.25
2018-07-27T12:28:12.701Z,3.35
2018-07-27T12:30:46.401Z,3.60
2018-07-27T12:33:19.638Z,3.50
2018-07-27T12:35:53.668Z,3.50
2018-07-27T12:38:28.071Z,4.80
2018-07-27T12:41:00.870Z,3.75
2018-07-27T12:43:35.257Z,3.15
2018-07-27T12:46:09.602Z,4.80
2018-07-27T12:48:44.109Z,3.70
2018-07-27T12:53:51.597Z,4.50
2018-07-27T12:56:27.799Z,3.55
2018-07-27T12:59:00.863Z,4.90
2018-07-27T13:01:36.965Z,3.45
2018-07-27T13:04:11.997Z,4.65
2018-07-27T13:06:47.727Z,3.92
2018-07-27T13:09:22.203Z,4.40
2018-07-27T13:11:56.769Z,3.97
2018-07-27T13:14:31.027Z,3.85
2018-07-27T13:17:05.069Z,3.87
2018-07-27T13:19:37.887Z,4.95
2018-07-27T13:22:12.320Z,3.62
2018-07-27T13:24:59.925Z,4.12
2018-07-27T13:27:36.531Z,4.10
2018-07-27T13:30:31.007Z,3.03
2018-07-27T13:33:05.899Z,3.30
2018-07-27T13:35:47.680Z,3.35
2018-07-27T13:38:20.520Z,3.33
2018-07-27T13:41:01.469Z,3.37
2018-07-27T13:43:37.143Z,3.37
2018-07-27T13:46:10.782Z,6.45
2018-07-27T13:48:45.729Z,3.97
2018-07-27T13:51:19.879Z,3.20
2018-07-27T13:53:54.842Z,5.20
2018-07-27T13:56:28.848Z,3.87
2018-07-27T13:59:05.043Z,3.33
2018-07-27T14:01:38.601Z,3.85
2018-07-27T14:04:16.382Z,3.67
2018-07-27T14:06:52.188Z,4.00
2018-07-27T14:09:27.893Z,3.58
2018-07-27T14:12:03.349Z,3.85
2018-07-27T14:14:36.708Z,3.72
2018-07-27T14:17:12.694Z,3.28
2018-07-27T14:19:46.434Z,3.87
2018-07-27T14:22:19.754Z,4.53
2018-07-27T14:24:58.889Z,5.85
2018-07-27T14:27:33.593Z,3.87
2018-07-27T14:30:09.746Z,4.10
2018-07-27T14:32:47.827Z,3.60
2018-07-27T14:35:21.023Z,2.95
2018-07-27T14:37:53.847Z,3.45
2018-07-27T14:40:28.000Z,3.60
2018-07-27T14:43:01.729Z,3.90
2018-07-27T14:45:35.671Z,5.72
2018-07-27T14:48:12.639Z,5.22
2018-07-27T14:50:47.367Z,3.80
2018-07-27T14:53:20.395Z,3.22
2018-07-27T14:55:55.368Z,5.57
2018-07-27T14:58:29.240Z,4.53
2018-07-27T15:01:02.428Z,3.60
2018-07-27T15:03:36.796Z,3.85
2018-07-27T15:06:10.286Z,4.00
2018-07-27T15:08:46.611Z,3.97
2018-07-27T15:11:25.676Z,3.65
2018-07-27T15:13:58.784Z,5.03
2018-07-27T15:16:36.486Z,4.22
2018-07-27T15:19:11.106Z,5.57
2018-07-27T15:21:45.599Z,3.65
2018-07-27T15:24:19.759Z,3.62
2018-07-27T15:26:57.309Z,9.00
2018-07-27T15:29:31.485Z,3.72
2018-07-27T15:32:05.850Z,6.62
2018-07-27T15:34:39.334Z,3.80
2018-07-27T15:37:13.530Z,3.45
2018-07-27T15:39:47.469Z,3.97
2018-07-27T15:42:24.023Z,3.58
2018-07-27T15:44:57.323Z,3.53
2018-07-27T15:47:31.439Z,3.17
2018-07-27T15:50:09.313Z,3.28
2018-07-27T15:52:46.592Z,4.80
2018-07-27T15:55:19.882Z,3.62
2018-07-27T15:57:53.814Z,3.87
2018-07-27T16:00:28.204Z,5.43
2018-07-27T16:03:01.126Z,3.37
2018-07-27T16:05:35.410Z,5.53
2018-07-27T16:08:10.481Z,3.33
2018-07-27T16:10:45.250Z,3.15
2018-07-27T16:13:19.645Z,4.20
2018-07-27T16:15:55.467Z,3.42
2018-07-27T16:18:28.338Z,3.35
2018-07-27T16:21:09.406Z,3.47
2018-07-27T16:23:52.299Z,3.08
2018-07-27T16:26:27.729Z,3.62
2018-07-27T16:29:04.801Z,3.40
2018-07-27T16:31:38.407Z,3.75
2018-07-27T16:34:11.903Z,3.60
2018-07-27T16:36:46.867Z,3.60
2018-07-27T16:39:20.727Z,3.50
2018-07-27T16:41:55.503Z,5.18
2018-07-27T16:44:30.601Z,5.00
2018-07-27T16:47:03.276Z,3.97
2018-07-27T16:49:36.563Z,4.25
2018-07-27T16:52:10.448Z,5.45
2018-07-27T16:54:43.325Z,4.97
2018-07-27T16:57:16.670Z,4.12
2018-07-27T16:59:52.486Z,4.18
2018-07-27T17:02:27.819Z,4.05
2018-07-27T17:05:02.055Z,3.50
2018-07-27T17:07:35.543Z,3.67
2018-07-27T17:10:09.646Z,3.67
2018-07-27T17:12:43.974Z,3.92
2018-07-27T17:15:19.624Z,4.65
2018-07-27T17:17:56.194Z,4.12
2018-07-27T17:20:31.699Z,3.50
2018-07-27T17:23:05.644Z,4.53
2018-07-27T17:25:43.746Z,4.03
2018-07-27T17:28:22.580Z,5.10
2018-07-27T17:30:58.739Z,3.80
2018-07-27T17:33:37.109Z,4.20
2018-07-27T17:36:12.283Z,6.30
2018-07-27T17:38:46.157Z,4.30
2018-07-27T17:41:23.479Z,4.00
2018-07-27T17:43:57.384Z,4.67
2018-07-27T17:46:47.523Z,4.10
2018-07-27T17:49:22.503Z,3.63
2018-07-27T17:51:58.742Z,5.70
2018-07-27T17:54:36.067Z,4.00
2018-07-27T17:57:13.412Z,5.17
2018-07-27T17:59:48.826Z,6.27
2018-07-27T18:02:32.628Z,3.90
2018-07-27T18:05:09.146Z,4.23
2018-07-27T18:07:42.569Z,6.00
2018-07-27T18:10:16.238Z,4.30
2018-07-27T18:12:52.157Z,4.83
2018-07-27T18:15:28.579Z,3.70
2018-07-27T18:18:02.305Z,3.23
2018-07-27T18:20:36.390Z,4.00
2018-07-27T18:23:10.173Z,3.87
2018-07-27T18:25:42.940Z,3.70
2018-07-27T18:28:18.081Z,3.47
2018-07-27T18:30:54.771Z,4.90
2018-07-27T18:33:29.202Z,6.50
2018-07-27T18:36:05.527Z,5.17
2018-07-27T18:38:39.702Z,6.43
2018-07-27T18:41:17.375Z,7.30
2018-07-27T18:43:51.546Z,5.60
2018-07-27T18:46:28.768Z,5.30
2018-07-27T18:49:02.411Z,5.53
2018-07-27T18:51:35.474Z,6.37
2018-07-27T18:54:09.086Z,7.60
2018-07-27T18:56:51.688Z,6.03
2018-07-27T18:59:28.154Z,6.10
2018-07-27T19:02:02.223Z,7.83
2018-07-27T19:04:35.652Z,8.30
2018-07-27T19:07:09.023Z,7.63
2018-07-27T19:09:42.496Z,10.40
2018-07-27T19:12:17.778Z,5.33
2018-07-27T19:14:55.508Z,6.25
2018-07-27T19:17:31.452Z,8.03
2018-07-27T19:20:08.644Z,7.73
2018-07-27T19:22:42.304Z,7.27
2018-07-27T19:25:17.546Z,5.53
2018-07-27T19:27:51.249Z,5.43
2018-07-27T19:30:25.838Z,5.37
2018-07-27T19:33:00.655Z,7.07
2018-07-27T19:35:34.925Z,6.23
2018-07-27T19:38:08.580Z,6.70
2018-07-27T19:40:42.678Z,6.60
2018-07-27T19:43:16.043Z,6.00
2018-07-27T19:45:49.642Z,6.00
2018-07-27T19:48:23.343Z,7.37
2018-07-27T19:50:57.062Z,6.57
2018-07-27T19:53:30.742Z,7.87
2018-07-27T19:56:03.829Z,8.37
2018-07-27T19:58:39.851Z,5.67
2018-07-27T20:01:12.662Z,6.73
2018-07-27T20:03:47.386Z,7.33
2018-07-27T20:06:21.699Z,6.13
2018-07-27T20:08:55.475Z,5.80
2018-07-27T20:11:28.110Z,6.70
2018-07-27T20:14:01.589Z,5.93
2018-07-27T20:16:35.110Z,7.67
2018-07-27T20:19:12.973Z,30.27
2018-07-27T20:21:46.969Z,30.33
2018-07-27T20:24:22.229Z,15.20
2018-07-27T20:27:03.791Z,9.10
2018-07-27T20:29:38.562Z,8.77
2018-07-27T20:32:12.702Z,6.73
2018-07-27T20:34:47.055Z,7.43
2018-07-27T20:37:24.579Z,6.03
2018-07-27T20:39:58.588Z,5.73
2018-07-27T20:42:33.326Z,5.97
2018-07-27T20:45:08.803Z,5.43
2018-07-27T20:47:44.732Z,5.33
2018-07-27T20:50:19.486Z,5.50
2018-07-27T20:52:55.081Z,5.20
2018-07-27T20:55:27.771Z,5.10
2018-07-27T20:58:02.404Z,5.10
2018-07-27T21:00:38.035Z,6.73
2018-07-27T21:03:14.854Z,4.90
2018-07-27T21:05:49.507Z,8.47
2018-07-27T21:08:24.667Z,8.77
2018-07-27T21:10:59.798Z,12.47
2018-07-27T21:13:37.886Z,7.00
2018-07-27T21:16:13.256Z,11.40
2018-07-27T21:18:46.022Z,8.63
2018-07-27T21:21:20.656Z,11.60
2018-07-27T21:23:54.229Z,6.80
2018-07-27T21:26:29.468Z,5.47
2018-07-27T21:29:03.805Z,6.60
2018-07-27T21:31:36.760Z,4.90
2018-07-27T21:34:12.092Z,5.83
2018-07-27T21:36:45.774Z,4.43
2018-07-27T21:39:21.700Z,4.85
2018-07-27T21:41:58.215Z,5.13
2018-07-27T21:44:33.958Z,4.40
2018-07-27T21:47:07.602Z,4.70
2018-07-27T21:49:44.314Z,4.27
2018-07-27T21:52:20.206Z,4.17
2018-07-27T21:54:57.990Z,4.77
2018-07-27T21:57:35.278Z,4.63
2018-07-27T22:00:18.563Z,4.20
2018-07-27T22:02:56.875Z,5.47
2018-07-27T22:05:53.357Z,5.77
2018-07-27T22:08:28.759Z,4.83
2018-07-27T22:11:19.765Z,4.63
2018-07-27T22:14:00.555Z,5.20
2018-07-27T22:16:35.518Z,4.85
2018-07-27T22:19:12.555Z,5.20
2018-07-27T22:21:47.360Z,4.53
2018-07-27T22:24:26.108Z,6.90
2018-07-27T22:27:07.650Z,6.93
2018-07-27T22:30:21.603Z,5.23
2018-07-27T22:33:12.825Z,5.20
2018-07-27T22:35:50.862Z,5.40
2018-07-27T22:38:26.846Z,5.20
2018-07-27T22:41:06.639Z,6.33
2018-07-27T22:43:46.783Z,4.93
2018-07-27T22:46:31.519Z,4.73
2018-07-27T22:49:07.603Z,4.70
2018-07-27T22:52:00.708Z,5.20
2018-07-27T22:54:39.664Z,4.80
2018-07-27T22:57:22.755Z,6.97
2018-07-27T23:00:00.504Z,5.17
2018-07-27T23:02:45.268Z,9.60
2018-07-27T23:05:26.364Z,4.90
2018-07-27T23:08:03.892Z,4.73
2018-07-27T23:10:52.448Z,4.60
2018-07-27T23:14:08.981Z,5.03
2018-07-27T23:16:47.298Z,4.63
2018-07-27T23:19:25.425Z,6.30
2018-07-27T23:22:01.308Z,6.47
2018-07-27T23:24:37.378Z,6.80
2018-07-27T23:27:14.157Z,6.50
2018-07-27T23:29:49.686Z,6.70
2018-07-27T23:32:39.745Z,4.67
2018-07-27T23:35:15.129Z,5.15
2018-07-27T23:37:55.089Z,5.07
2018-07-27T23:40:29.766Z,5.13
2018-07-27T23:43:05.412Z,6.50
2018-07-27T23:45:51.585Z,6.50
2018-07-27T23:48:44.502Z,6.37
2018-07-27T23:51:25.476Z,5.55
2018-07-27T23:54:02.306Z,5.00
2018-07-27T23:56:43.531Z,4.77
2018-07-27T23:59:18.782Z,5.37
